createdAt,value
2023-02-26T00:00:03.056Z,323.00
2023-02-26T00:01:03.005Z,302.00
2023-02-26T00:02:03.025Z,283.00
2023-02-26T00:03:03.237Z,270.00
2023-02-26T00:04:03.012Z,256.00
2023-02-26T00:05:02.953Z,258.00
2023-02-26T00:06:02.940Z,260.00
2023-02-26T00:07:02.915Z,260.00
2023-02-26T00:08:02.994Z,257.00
2023-02-26T00:09:02.946Z,258.00
2023-02-26T00:10:02.916Z,253.00
2023-02-26T00:11:02.873Z,269.00
2023-02-26T00:12:02.886Z,308.00
2023-02-26T00:13:02.863Z,311.00
2023-02-26T00:14:02.938Z,323.00
2023-02-26T00:15:02.830Z,317.00
2023-02-26T00:16:02.853Z,316.00
2023-02-26T00:17:03.423Z,315.00
2023-02-26T00:18:02.804Z,339.00
2023-02-26T00:19:02.772Z,348.00
2023-02-26T00:20:02.739Z,377.00
2023-02-26T00:21:02.716Z,385.00
2023-02-26T00:22:02.710Z,394.00
2023-02-26T00:23:02.681Z,414.00
2023-02-26T00:24:02.923Z,422.00
2023-02-26T00:25:02.679Z,438.00
2023-02-26T00:26:02.673Z,435.00
2023-02-26T00:27:02.653Z,438.00
2023-02-26T00:28:02.651Z,446.00
2023-02-26T00:29:02.647Z,440.00
2023-02-26T00:30:02.662Z,428.00
2023-02-26T00:31:02.686Z,429.00
2023-02-26T00:32:02.707Z,431.00
2023-02-26T00:33:02.584Z,431.00
2023-02-26T00:34:02.596Z,428.00
2023-02-26T00:35:02.565Z,432.00
2023-02-26T00:36:02.564Z,438.00
2023-02-26T00:37:02.522Z,432.00
2023-02-26T00:38:02.541Z,440.00
2023-02-26T00:39:02.542Z,427.00
2023-02-26T00:40:02.517Z,419.00
2023-02-26T00:41:02.480Z,421.00
2023-02-26T00:42:02.463Z,424.00
2023-02-26T00:43:02.491Z,416.00
2023-02-26T00:44:02.433Z,437.00
2023-02-26T00:45:02.454Z,427.00
2023-02-26T00:46:02.469Z,448.00
2023-02-26T00:47:02.432Z,446.00
2023-02-26T00:48:02.412Z,449.00
2023-02-26T00:49:02.392Z,449.00
2023-02-26T00:50:02.385Z,441.00
2023-02-26T00:51:02.351Z,419.00
2023-02-26T00:52:02.357Z,425.00
2023-02-26T00:53:02.366Z,423.00
2023-02-26T00:54:02.305Z,419.00
2023-02-26T00:55:02.303Z,418.00
2023-02-26T00:56:02.307Z,427.00
2023-02-26T00:57:02.325Z,441.00
2023-02-26T00:58:02.273Z,441.00
2023-02-26T00:59:03.296Z,439.00
2023-02-26T01:00:02.233Z,431.00
2023-02-26T01:01:02.258Z,444.00
2023-02-26T01:02:02.193Z,421.00
2023-02-26T01:03:02.206Z,425.00
2023-02-26T01:04:02.193Z,432.00
2023-02-26T01:05:02.173Z,427.00
2023-02-26T01:06:02.150Z,414.00
2023-02-26T01:07:02.122Z,417.00
2023-02-26T01:08:02.122Z,414.00
2023-02-26T01:09:02.093Z,431.00
2023-02-26T01:10:02.111Z,427.00
2023-02-26T01:11:02.082Z,436.00
2023-02-26T01:12:02.056Z,425.00
2023-02-26T01:13:02.090Z,448.00
2023-02-26T01:14:02.023Z,440.00
2023-02-26T01:15:02.026Z,450.00
2023-02-26T01:16:02.086Z,431.00
2023-02-26T01:17:02.024Z,435.00
2023-02-26T01:18:01.994Z,449.00
2023-02-26T01:19:01.961Z,444.00
2023-02-26T01:20:01.981Z,451.00
2023-02-26T01:21:01.957Z,442.00
2023-02-26T01:22:01.932Z,441.00
2023-02-26T01:23:01.959Z,416.00
2023-02-26T01:24:01.898Z,428.00
2023-02-26T01:25:01.900Z,438.00
2023-02-26T01:26:01.869Z,426.00
2023-02-26T01:27:01.918Z,431.00
2023-02-26T01:28:01.853Z,426.00
2023-02-26T01:29:01.847Z,423.00
2023-02-26T01:30:01.864Z,433.00
2023-02-26T01:31:01.941Z,428.00
2023-02-26T01:32:02.043Z,426.00
2023-02-26T01:33:01.779Z,429.00
2023-02-26T01:34:01.794Z,438.00
2023-02-26T01:35:01.774Z,435.00
2023-02-26T01:36:01.771Z,414.00
2023-02-26T01:37:01.730Z,423.00
2023-02-26T01:38:01.719Z,420.00
2023-02-26T01:39:01.731Z,449.00
2023-02-26T01:40:01.750Z,432.00
2023-02-26T01:41:01.699Z,439.00
2023-02-26T01:42:01.677Z,434.00
2023-02-26T01:43:01.691Z,396.00
2023-02-26T01:44:01.652Z,438.00
2023-02-26T01:45:01.672Z,423.00
2023-02-26T01:46:01.638Z,434.00
2023-02-26T01:47:01.631Z,439.00
2023-02-26T01:48:01.605Z,446.00
2023-02-26T01:49:01.584Z,444.00
2023-02-26T01:50:01.602Z,433.00
2023-02-26T01:51:01.597Z,437.00
2023-02-26T01:52:01.554Z,431.00
2023-02-26T01:53:01.549Z,434.00
2023-02-26T01:54:01.531Z,427.00
2023-02-26T01:55:01.509Z,440.00
2023-02-26T01:56:01.498Z,433.00
2023-02-26T01:57:01.499Z,436.00
2023-02-26T01:58:01.498Z,430.00
2023-02-26T01:59:01.468Z,440.00
2023-02-26T02:00:01.457Z,436.00
2023-02-26T02:01:01.429Z,436.00
2023-02-26T02:02:01.431Z,418.00
2023-02-26T02:03:01.614Z,422.00
2023-02-26T02:04:01.393Z,424.00
2023-02-26T02:05:01.379Z,428.00
2023-02-26T02:06:01.386Z,431.00
2023-02-26T02:07:01.374Z,429.00
2023-02-26T02:08:01.324Z,425.00
2023-02-26T02:09:01.325Z,429.00
2023-02-26T02:10:01.316Z,430.00
2023-02-26T02:11:01.318Z,436.00
2023-02-26T02:12:01.271Z,444.00
2023-02-26T02:13:01.281Z,423.00
2023-02-26T02:14:01.268Z,423.00
2023-02-26T02:15:01.247Z,432.00
2023-02-26T02:16:01.249Z,443.00
2023-02-26T02:17:01.235Z,427.00
2023-02-26T02:18:01.213Z,427.00
2023-02-26T02:19:01.191Z,423.00
2023-02-26T02:20:01.196Z,420.00
2023-02-26T02:21:01.179Z,437.00
2023-02-26T02:22:03.361Z,420.00
2023-02-26T02:23:01.141Z,418.00
2023-02-26T02:24:01.126Z,433.00
2023-02-26T02:25:01.110Z,432.00
2023-02-26T02:26:01.121Z,440.00
2023-02-26T02:27:01.131Z,434.00
2023-02-26T02:28:01.077Z,428.00
2023-02-26T02:29:01.050Z,434.00
2023-02-26T02:30:01.076Z,439.00
2023-02-26T02:31:01.480Z,426.00
2023-02-26T02:32:01.237Z,424.00
2023-02-26T02:33:01.027Z,431.00
2023-02-26T02:34:01.010Z,405.00
2023-02-26T02:35:01.007Z,419.00
2023-02-26T02:36:00.972Z,433.00
2023-02-26T02:37:00.967Z,413.00
2023-02-26T02:38:00.944Z,438.00
2023-02-26T02:39:00.932Z,427.00
2023-02-26T02:40:00.917Z,432.00
2023-02-26T02:41:00.913Z,462.00
2023-02-26T02:42:00.906Z,437.00
2023-02-26T02:43:00.911Z,445.00
2023-02-26T02:44:00.896Z,447.00
2023-02-26T02:45:00.887Z,425.00
2023-02-26T02:46:01.377Z,430.00
2023-02-26T02:47:00.836Z,428.00
2023-02-26T02:48:00.842Z,433.00
2023-02-26T02:49:00.800Z,428.00
2023-02-26T02:50:00.805Z,445.00
2023-02-26T02:51:00.789Z,449.00
2023-02-26T02:52:00.795Z,430.00
2023-02-26T02:53:00.774Z,437.00
2023-02-26T02:54:00.737Z,428.00
2023-02-26T02:55:00.737Z,428.00
2023-02-26T02:56:00.733Z,429.00
2023-02-26T02:57:00.724Z,440.00
2023-02-26T02:58:00.699Z,428.00
2023-02-26T02:59:00.704Z,458.00
2023-02-26T03:00:00.676Z,441.00
2023-02-26T03:01:00.730Z,434.00
2023-02-26T03:02:00.638Z,417.00
2023-02-26T03:03:00.743Z,418.00
2023-02-26T03:04:00.609Z,430.00
2023-02-26T03:05:00.662Z,451.00
2023-02-26T03:06:00.587Z,433.00
2023-02-26T03:07:00.588Z,430.00
2023-02-26T03:08:00.592Z,437.00
2023-02-26T03:09:00.550Z,430.00
2023-02-26T03:10:00.568Z,443.00
2023-02-26T03:11:00.546Z,439.00
2023-02-26T03:12:00.620Z,427.00
2023-02-26T03:13:00.558Z,425.00
2023-02-26T03:14:00.470Z,431.00
2023-02-26T03:15:00.475Z,433.00
2023-02-26T03:16:00.686Z,430.00
2023-02-26T03:17:00.465Z,448.00
2023-02-26T03:18:00.456Z,441.00
2023-02-26T03:19:00.430Z,433.00
2023-02-26T03:20:00.412Z,440.00
2023-02-26T03:21:00.413Z,434.00
2023-02-26T03:22:00.384Z,448.00
2023-02-26T03:23:00.365Z,430.00
2023-02-26T03:24:00.361Z,451.00
2023-02-26T03:25:00.390Z,443.00
2023-02-26T03:26:00.357Z,441.00
2023-02-26T03:27:00.304Z,441.00
2023-02-26T03:28:00.289Z,418.00
2023-02-26T03:29:00.305Z,439.00
2023-02-26T03:30:00.283Z,437.00
2023-02-26T03:31:00.313Z,465.00
2023-02-26T03:32:00.401Z,430.00
2023-02-26T03:33:00.269Z,433.00
2023-02-26T03:34:00.234Z,408.00
2023-02-26T03:35:00.250Z,430.00
2023-02-26T03:36:00.220Z,425.00
2023-02-26T03:37:00.209Z,420.00
2023-02-26T03:38:00.172Z,415.00
2023-02-26T03:39:00.179Z,408.00
2023-02-26T03:40:00.190Z,405.00
2023-02-26T03:41:00.171Z,459.00
2023-02-26T03:42:00.136Z,434.00
2023-02-26T03:43:00.152Z,426.00
2023-02-26T03:44:00.105Z,421.00
2023-02-26T03:45:00.131Z,436.00
2023-02-26T03:46:00.110Z,434.00
2023-02-26T03:47:00.082Z,423.00
2023-02-26T03:48:00.038Z,449.00
2023-02-26T03:49:00.060Z,432.00
2023-02-26T03:50:00.040Z,448.00
2023-02-26T03:51:00.012Z,449.00
2023-02-26T03:52:00.011Z,440.00
2023-02-26T03:52:59.979Z,428.00
2023-02-26T03:53:59.973Z,457.00
2023-02-26T03:54:59.962Z,444.00
2023-02-26T03:55:59.961Z,432.00
2023-02-26T03:56:59.963Z,438.00
2023-02-26T03:57:59.955Z,423.00
2023-02-26T03:58:59.910Z,429.00
2023-02-26T03:59:59.881Z,416.00
2023-02-26T04:00:59.879Z,428.00
2023-02-26T04:01:59.883Z,424.00
2023-02-26T04:02:59.856Z,431.00
2023-02-26T04:03:59.892Z,437.00
2023-02-26T04:04:59.853Z,430.00
2023-02-26T04:05:59.791Z,453.00
2023-02-26T04:06:59.793Z,451.00
2023-02-26T04:07:59.814Z,448.00
2023-02-26T04:08:59.791Z,444.00
2023-02-26T04:09:59.747Z,451.00
2023-02-26T04:10:59.754Z,442.00
2023-02-26T04:11:59.745Z,433.00
2023-02-26T04:12:59.751Z,447.00
2023-02-26T04:13:59.702Z,445.00
2023-02-26T04:14:59.703Z,425.00
2023-02-26T04:15:59.688Z,422.00
2023-02-26T04:16:59.779Z,456.00
2023-02-26T04:17:59.661Z,448.00
2023-02-26T04:18:59.683Z,417.00
2023-02-26T04:19:59.644Z,442.00
2023-02-26T04:20:59.624Z,436.00
2023-02-26T04:21:59.587Z,453.00
2023-02-26T04:22:59.596Z,441.00
2023-02-26T04:23:59.598Z,414.00
2023-02-26T04:24:59.586Z,432.00
2023-02-26T04:25:59.538Z,428.00
2023-02-26T04:26:59.546Z,437.00
2023-02-26T04:27:59.551Z,435.00
2023-02-26T04:28:59.550Z,401.00
2023-02-26T04:29:59.495Z,408.00
2023-02-26T04:30:59.618Z,419.00
2023-02-26T04:31:59.613Z,417.00
2023-02-26T04:32:59.463Z,421.00
2023-02-26T04:33:59.458Z,422.00
2023-02-26T04:34:59.429Z,425.00
2023-02-26T04:35:59.419Z,427.00
2023-02-26T04:36:59.411Z,476.00
2023-02-26T04:37:59.373Z,424.00
2023-02-26T04:38:59.400Z,423.00
2023-02-26T04:39:59.418Z,434.00
2023-02-26T04:40:59.342Z,441.00
2023-02-26T04:41:59.345Z,445.00
2023-02-26T04:42:59.335Z,445.00
2023-02-26T04:43:59.340Z,440.00
2023-02-26T04:44:59.311Z,429.00
2023-02-26T04:45:59.319Z,444.00
2023-02-26T04:46:59.312Z,445.00
2023-02-26T04:47:59.244Z,434.00
2023-02-26T04:48:59.271Z,429.00
2023-02-26T04:49:59.293Z,423.00
2023-02-26T04:50:59.276Z,433.00
2023-02-26T04:51:59.241Z,424.00
2023-02-26T04:52:59.212Z,429.00
2023-02-26T04:53:59.187Z,437.00
2023-02-26T04:54:59.200Z,438.00
2023-02-26T04:55:59.151Z,439.00
2023-02-26T04:56:59.149Z,436.00
2023-02-26T04:57:59.114Z,437.00
2023-02-26T04:58:59.118Z,420.00
2023-02-26T04:59:59.123Z,434.00
2023-02-26T05:00:59.119Z,439.00
2023-02-26T05:01:59.228Z,442.00
2023-02-26T05:02:59.114Z,434.00
2023-02-26T05:03:59.077Z,424.00
2023-02-26T05:04:59.042Z,430.00
2023-02-26T05:05:59.041Z,438.00
2023-02-26T05:06:59.012Z,448.00
2023-02-26T05:07:59.024Z,471.00
2023-02-26T05:08:58.999Z,437.00
2023-02-26T05:09:58.965Z,434.00
2023-02-26T05:10:58.946Z,442.00
2023-02-26T05:11:58.962Z,423.00
2023-02-26T05:12:58.961Z,420.00
2023-02-26T05:13:58.915Z,431.00
2023-02-26T05:14:58.902Z,444.00
2023-02-26T05:15:58.917Z,448.00
2023-02-26T05:16:58.886Z,436.00
2023-02-26T05:17:58.898Z,426.00
2023-02-26T05:18:58.878Z,453.00
2023-02-26T05:19:58.850Z,449.00
2023-02-26T05:20:58.838Z,434.00
2023-02-26T05:21:58.824Z,413.00
2023-02-26T05:22:58.820Z,419.00
2023-02-26T05:23:58.821Z,449.00
2023-02-26T05:24:58.801Z,447.00
2023-02-26T05:25:58.779Z,435.00
2023-02-26T05:26:58.778Z,412.00
2023-02-26T05:27:58.759Z,453.00
2023-02-26T05:28:58.763Z,443.00
2023-02-26T05:29:58.756Z,437.00
2023-02-26T05:30:58.781Z,432.00
2023-02-26T05:31:58.710Z,423.00
2023-02-26T05:32:58.704Z,439.00
2023-02-26T05:33:58.694Z,419.00
2023-02-26T05:34:58.660Z,418.00
2023-02-26T05:35:58.654Z,425.00
2023-02-26T05:36:58.621Z,434.00
2023-02-26T05:37:58.605Z,417.00
2023-02-26T05:38:58.608Z,416.00
2023-02-26T05:39:58.606Z,413.00
2023-02-26T05:40:58.608Z,424.00
2023-02-26T05:41:58.554Z,422.00
2023-02-26T05:42:58.598Z,421.00
2023-02-26T05:43:58.529Z,428.00
2023-02-26T05:44:58.533Z,432.00
2023-02-26T05:45:58.532Z,436.00
2023-02-26T05:46:58.551Z,430.00
2023-02-26T05:47:58.489Z,438.00
2023-02-26T05:48:58.487Z,436.00
2023-02-26T05:49:58.474Z,441.00
2023-02-26T05:50:58.477Z,419.00
2023-02-26T05:51:58.453Z,446.00
2023-02-26T05:52:58.415Z,433.00
2023-02-26T05:53:58.417Z,427.00
2023-02-26T05:54:58.458Z,440.00
2023-02-26T05:55:58.426Z,422.00
2023-02-26T05:56:58.417Z,426.00
2023-02-26T05:57:58.355Z,437.00
2023-02-26T05:58:58.373Z,432.00
2023-02-26T05:59:58.344Z,422.00
2023-02-26T06:00:58.309Z,426.00
2023-02-26T06:01:58.392Z,418.00
2023-02-26T06:02:58.336Z,435.00
2023-02-26T06:03:58.278Z,451.00
2023-02-26T06:04:58.259Z,435.00
2023-02-26T06:05:58.247Z,439.00
2023-02-26T06:06:58.262Z,440.00
2023-02-26T06:07:58.237Z,443.00
2023-02-26T06:08:58.211Z,428.00
2023-02-26T06:09:58.219Z,423.00
2023-02-26T06:10:58.171Z,425.00
2023-02-26T06:11:58.203Z,440.00
2023-02-26T06:12:58.182Z,433.00
2023-02-26T06:13:58.143Z,434.00
2023-02-26T06:14:58.146Z,414.00
2023-02-26T06:15:58.152Z,428.00
2023-02-26T06:16:58.085Z,440.00
2023-02-26T06:17:58.112Z,421.00
2023-02-26T06:18:58.110Z,419.00
2023-02-26T06:19:58.054Z,394.00
2023-02-26T06:20:58.085Z,413.00
2023-02-26T06:21:58.072Z,415.00
2023-02-26T06:22:58.037Z,417.00
2023-02-26T06:23:58.063Z,417.00
2023-02-26T06:24:58.044Z,428.00
2023-02-26T06:25:58.033Z,413.00
2023-02-26T06:26:58.031Z,424.00
2023-02-26T06:27:57.981Z,428.00
2023-02-26T06:28:57.984Z,426.00
2023-02-26T06:29:57.973Z,441.00
2023-02-26T06:30:57.997Z,420.00
2023-02-26T06:31:58.033Z,425.00
2023-02-26T06:32:57.940Z,419.00
2023-02-26T06:33:57.945Z,396.00
2023-02-26T06:34:57.874Z,391.00
2023-02-26T06:35:57.916Z,360.00
2023-02-26T06:36:57.852Z,357.00
2023-02-26T06:37:57.850Z,378.00
2023-02-26T06:38:57.919Z,420.00
2023-02-26T06:39:57.849Z,410.00
2023-02-26T06:40:57.884Z,392.00
2023-02-26T06:41:57.810Z,321.00
2023-02-26T06:42:57.753Z,290.00
2023-02-26T06:43:57.791Z,305.00
2023-02-26T06:44:57.787Z,391.00
2023-02-26T06:45:57.745Z,417.00
2023-02-26T06:46:57.872Z,416.00
2023-02-26T06:47:57.738Z,394.00
2023-02-26T06:48:57.713Z,316.00
2023-02-26T06:49:57.684Z,324.00
2023-02-26T06:50:57.676Z,327.00
2023-02-26T06:51:57.674Z,313.00
2023-02-26T06:52:57.637Z,348.00
2023-02-26T06:53:57.616Z,353.00
2023-02-26T06:54:57.620Z,344.00
2023-02-26T06:55:57.602Z,313.00
2023-02-26T06:56:57.624Z,313.00
2023-02-26T06:57:57.587Z,347.00
2023-02-26T06:58:57.580Z,435.00
2023-02-26T06:59:57.556Z,415.00
2023-02-26T07:00:57.603Z,282.00
2023-02-26T07:01:57.643Z,241.00
2023-02-26T07:02:57.512Z,290.00
2023-02-26T07:03:57.482Z,328.00
2023-02-26T07:04:57.515Z,347.00
2023-02-26T07:06:01.150Z,348.00
2023-02-26T07:06:57.468Z,351.00
2023-02-26T07:07:57.440Z,338.00
2023-02-26T07:08:57.454Z,317.00
2023-02-26T07:09:57.446Z,220.00
2023-02-26T07:10:57.478Z,241.00
2023-02-26T07:11:57.417Z,222.00
2023-02-26T07:12:57.460Z,220.00
2023-02-26T07:13:57.355Z,225.00
2023-02-26T07:14:57.375Z,299.00
2023-02-26T07:15:57.356Z,371.00
2023-02-26T07:16:57.435Z,398.00
2023-02-26T07:17:57.334Z,410.00
2023-02-26T07:18:57.314Z,435.00
2023-02-26T07:19:57.302Z,432.00
2023-02-26T07:20:57.285Z,432.00
2023-02-26T07:21:57.309Z,381.00
2023-02-26T07:22:57.255Z,359.00
2023-02-26T07:23:57.258Z,362.00
2023-02-26T07:24:57.238Z,344.00
2023-02-26T07:25:57.228Z,336.00
2023-02-26T07:26:57.213Z,334.00
2023-02-26T07:27:57.208Z,326.00
2023-02-26T07:28:57.195Z,373.00
2023-02-26T07:29:57.201Z,394.00
2023-02-26T07:30:57.267Z,428.00
2023-02-26T07:31:57.351Z,432.00
2023-02-26T07:32:57.136Z,393.00
2023-02-26T07:33:57.145Z,351.00
2023-02-26T07:34:57.094Z,320.00
2023-02-26T07:35:57.112Z,329.00
2023-02-26T07:36:57.096Z,355.00
2023-02-26T07:37:57.095Z,364.00
2023-02-26T07:38:57.074Z,417.00
2023-02-26T07:39:57.059Z,433.00
2023-02-26T07:40:57.000Z,439.00
2023-02-26T07:41:57.030Z,433.00
2023-02-26T07:42:57.016Z,416.00
2023-02-26T07:43:56.967Z,427.00
2023-02-26T07:44:56.961Z,403.00
2023-02-26T07:45:56.964Z,328.00
2023-02-26T07:46:56.960Z,329.00
2023-02-26T07:47:56.932Z,296.00
2023-02-26T07:48:56.940Z,293.00
2023-02-26T07:49:56.899Z,312.00
2023-02-26T07:50:56.915Z,311.00
2023-02-26T07:51:56.874Z,322.00
2023-02-26T07:52:56.862Z,319.00
2023-02-26T07:53:56.845Z,449.00
2023-02-26T07:54:56.838Z,371.00
2023-02-26T07:55:56.826Z,344.00
2023-02-26T07:56:56.789Z,356.00
2023-02-26T07:57:56.805Z,256.00
2023-02-26T07:58:56.783Z,352.00
2023-02-26T07:59:56.784Z,343.00
2023-02-26T08:00:56.771Z,340.00
2023-02-26T08:01:56.775Z,301.00
2023-02-26T08:02:56.761Z,269.00
2023-02-26T08:03:56.802Z,256.00
2023-02-26T08:04:56.713Z,243.00
2023-02-26T08:05:56.699Z,252.00
2023-02-26T08:06:56.698Z,288.00
2023-02-26T08:07:56.704Z,357.00
2023-02-26T08:08:56.633Z,386.00
2023-02-26T08:09:56.666Z,418.00
2023-02-26T08:10:56.652Z,423.00
2023-02-26T08:11:56.624Z,446.00
2023-02-26T08:12:56.598Z,421.00
2023-02-26T08:13:56.612Z,423.00
2023-02-26T08:14:56.610Z,435.00
2023-02-26T08:15:56.572Z,421.00
2023-02-26T08:16:56.578Z,435.00
2023-02-26T08:17:56.527Z,404.00
2023-02-26T08:18:56.542Z,392.00
2023-02-26T08:19:56.548Z,362.00
2023-02-26T08:20:56.506Z,334.00
2023-02-26T08:21:56.514Z,334.00
2023-02-26T08:22:56.475Z,334.00
2023-02-26T08:23:56.464Z,320.00
2023-02-26T08:24:56.443Z,325.00
2023-02-26T08:25:56.434Z,320.00
2023-02-26T08:26:56.397Z,344.00
2023-02-26T08:27:56.414Z,347.00
2023-02-26T08:28:56.405Z,330.00
2023-02-26T08:29:56.389Z,315.00
2023-02-26T08:30:56.477Z,354.00
2023-02-26T08:31:56.506Z,364.00
2023-02-26T08:32:56.335Z,363.00
2023-02-26T08:33:56.345Z,361.00
2023-02-26T08:34:56.325Z,357.00
2023-02-26T08:35:56.292Z,341.00
2023-02-26T08:36:56.278Z,342.00
2023-02-26T08:37:56.264Z,327.00
2023-02-26T08:38:56.264Z,337.00
2023-02-26T08:39:56.262Z,338.00
2023-02-26T08:40:56.239Z,340.00
2023-02-26T08:41:56.229Z,351.00
2023-02-26T08:42:57.576Z,344.00
2023-02-26T08:43:56.202Z,336.00
2023-02-26T08:44:56.193Z,320.00
2023-02-26T08:45:56.170Z,356.00
2023-02-26T08:46:56.220Z,335.00
2023-02-26T08:47:57.356Z,324.00
2023-02-26T08:48:56.127Z,328.00
2023-02-26T08:49:56.126Z,310.00
2023-02-26T08:50:56.137Z,292.00
2023-02-26T08:51:56.094Z,306.00
2023-02-26T08:52:56.099Z,342.00
2023-02-26T08:53:56.081Z,331.00
2023-02-26T08:54:56.052Z,319.00
2023-02-26T08:55:56.051Z,316.00
2023-02-26T08:56:56.049Z,317.00
2023-02-26T08:57:56.013Z,374.00
2023-02-26T08:58:56.038Z,375.00
2023-02-26T08:59:55.975Z,346.00
2023-02-26T09:00:55.979Z,284.00
2023-02-26T09:01:56.020Z,317.00
2023-02-26T09:02:56.013Z,350.00
2023-02-26T09:03:55.929Z,366.00
2023-02-26T09:04:55.939Z,368.00
2023-02-26T09:05:55.902Z,401.00
2023-02-26T09:06:55.888Z,367.00
2023-02-26T09:07:55.899Z,395.00
2023-02-26T09:08:55.872Z,353.00
2023-02-26T09:09:55.837Z,328.00
2023-02-26T09:10:55.857Z,305.00
2023-02-26T09:11:55.839Z,325.00
2023-02-26T09:12:55.810Z,309.00
2023-02-26T09:13:55.806Z,305.00
2023-02-26T09:14:55.801Z,291.00
2023-02-26T09:15:55.787Z,277.00
2023-02-26T09:16:55.774Z,281.00
2023-02-26T09:17:55.774Z,277.00
2023-02-26T09:18:55.751Z,264.00
2023-02-26T09:19:55.706Z,241.00
2023-02-26T09:20:55.737Z,241.00
2023-02-26T09:21:55.702Z,238.00
2023-02-26T09:22:55.708Z,239.00
2023-02-26T09:23:55.683Z,241.00
2023-02-26T09:24:55.737Z,243.00
2023-02-26T09:25:55.638Z,238.00
2023-02-26T09:26:55.661Z,244.00
2023-02-26T09:27:57.729Z,256.00
2023-02-26T09:28:55.615Z,261.00
2023-02-26T09:29:55.589Z,282.00
2023-02-26T09:30:55.584Z,304.00
2023-02-26T09:31:55.664Z,284.00
2023-02-26T09:32:55.565Z,288.00
2023-02-26T09:33:55.549Z,307.00
2023-02-26T09:34:55.520Z,310.00
2023-02-26T09:35:55.523Z,306.00
2023-02-26T09:36:55.526Z,312.00
2023-02-26T09:37:55.496Z,317.00
2023-02-26T09:38:55.495Z,309.00
2023-02-26T09:39:55.490Z,309.00
2023-02-26T09:40:55.438Z,254.00
2023-02-26T09:41:55.433Z,252.00
2023-02-26T09:42:55.436Z,258.00
2023-02-26T09:43:55.410Z,275.00
2023-02-26T09:44:55.456Z,282.00
2023-02-26T09:45:55.410Z,289.00
2023-02-26T09:46:55.367Z,277.00
2023-02-26T09:47:55.363Z,291.00
2023-02-26T09:48:55.365Z,298.00
2023-02-26T09:49:55.332Z,313.00
2023-02-26T09:50:55.313Z,313.00
2023-02-26T09:51:55.287Z,311.00
2023-02-26T09:52:55.319Z,300.00
2023-02-26T09:53:55.325Z,296.00
2023-02-26T09:54:55.260Z,302.00
2023-02-26T09:55:55.314Z,311.00
2023-02-26T09:56:55.267Z,311.00
2023-02-26T09:57:55.240Z,321.00
2023-02-26T09:58:55.257Z,323.00
2023-02-26T09:59:55.225Z,324.00
2023-02-26T10:00:55.199Z,288.00
2023-02-26T10:01:55.207Z,288.00
2023-02-26T10:02:55.195Z,283.00
2023-02-26T10:03:55.150Z,274.00
2023-02-26T10:04:55.138Z,274.00
2023-02-26T10:05:55.114Z,263.00
2023-02-26T10:06:55.172Z,262.00
2023-02-26T10:07:55.116Z,297.00
2023-02-26T10:08:55.089Z,397.00
2023-02-26T10:09:55.066Z,422.00
2023-02-26T10:10:55.125Z,320.00
2023-02-26T10:11:55.031Z,320.00
2023-02-26T10:12:55.030Z,267.00
2023-02-26T10:13:57.884Z,254.00
2023-02-26T10:14:54.988Z,260.00
2023-02-26T10:15:54.990Z,270.00
2023-02-26T10:16:55.056Z,288.00
2023-02-26T10:17:54.963Z,292.00
2023-02-26T10:18:54.945Z,264.00
2023-02-26T10:19:54.967Z,260.00
2023-02-26T10:20:54.943Z,275.00
2023-02-26T10:21:54.887Z,308.00
2023-02-26T10:22:54.893Z,322.00
2023-02-26T10:23:54.879Z,325.00
2023-02-26T10:24:54.844Z,331.00
2023-02-26T10:25:54.828Z,337.00
2023-02-26T10:26:54.864Z,340.00
2023-02-26T10:27:54.821Z,340.00
2023-02-26T10:28:54.821Z,340.00
2023-02-26T10:29:54.794Z,343.00
2023-02-26T10:30:54.799Z,345.00
2023-02-26T10:31:54.793Z,350.00
2023-02-26T10:32:54.761Z,346.00
2023-02-26T10:33:54.720Z,346.00
2023-02-26T10:34:54.753Z,346.00
2023-02-26T10:35:54.692Z,350.00
2023-02-26T10:36:54.697Z,349.00
2023-02-26T10:37:54.699Z,343.00
2023-02-26T10:38:54.689Z,336.00
2023-02-26T10:39:54.657Z,333.00
2023-02-26T10:40:54.664Z,313.00
2023-02-26T10:41:54.627Z,278.00
2023-02-26T10:42:54.624Z,249.00
2023-02-26T10:43:54.608Z,251.00
2023-02-26T10:44:54.594Z,277.00
2023-02-26T10:45:54.620Z,287.00
2023-02-26T10:46:54.650Z,328.00
2023-02-26T10:47:54.536Z,318.00
2023-02-26T10:48:54.535Z,283.00
2023-02-26T10:49:54.514Z,271.00
2023-02-26T10:50:54.508Z,270.00
2023-02-26T10:51:54.493Z,319.00
2023-02-26T10:52:54.500Z,314.00
2023-02-26T10:53:54.452Z,308.00
2023-02-26T10:54:54.474Z,296.00
2023-02-26T10:55:54.430Z,269.00
2023-02-26T10:56:54.428Z,266.00
2023-02-26T10:57:54.407Z,285.00
2023-02-26T10:58:54.398Z,317.00
2023-02-26T10:59:54.373Z,328.00
2023-02-26T11:00:54.452Z,324.00
2023-02-26T11:01:54.348Z,326.00
2023-02-26T11:02:54.344Z,326.00
2023-02-26T11:03:54.328Z,334.00
2023-02-26T11:05:06.868Z,336.00
2023-02-26T11:05:54.295Z,334.00
2023-02-26T11:06:54.308Z,326.00
2023-02-26T11:07:54.290Z,326.00
2023-02-26T11:08:54.261Z,309.00
2023-02-26T11:09:54.258Z,288.00
2023-02-26T11:10:54.234Z,297.00
2023-02-26T11:11:54.221Z,305.00
2023-02-26T11:12:54.226Z,294.00
2023-02-26T11:13:54.233Z,382.00
2023-02-26T11:14:54.211Z,390.00
2023-02-26T11:15:54.328Z,333.00
2023-02-26T11:16:54.165Z,275.00
2023-02-26T11:17:54.165Z,269.00
2023-02-26T11:18:54.144Z,261.00
2023-02-26T11:19:54.141Z,262.00
2023-02-26T11:20:54.108Z,269.00
2023-02-26T11:21:54.076Z,335.00
2023-02-26T11:22:54.088Z,342.00
2023-02-26T11:23:54.066Z,386.00
2023-02-26T11:24:54.069Z,403.00
2023-02-26T11:25:54.042Z,408.00
2023-02-26T11:26:54.032Z,407.00
2023-02-26T11:27:54.027Z,308.00
2023-02-26T11:28:53.995Z,322.00
2023-02-26T11:29:54.000Z,327.00
2023-02-26T11:30:54.050Z,323.00
2023-02-26T11:31:54.060Z,350.00
2023-02-26T11:32:53.959Z,382.00
2023-02-26T11:33:53.919Z,386.00
2023-02-26T11:34:53.942Z,362.00
2023-02-26T11:35:53.923Z,358.00
2023-02-26T11:36:53.924Z,428.00
2023-02-26T11:37:53.895Z,314.00
2023-02-26T11:38:53.864Z,327.00
2023-02-26T11:39:53.853Z,323.00
2023-02-26T11:40:53.886Z,353.00
2023-02-26T11:41:53.875Z,330.00
2023-02-26T11:42:53.820Z,329.00
2023-02-26T11:43:53.810Z,350.00
2023-02-26T11:44:53.799Z,417.00
2023-02-26T11:45:53.831Z,285.00
2023-02-26T11:46:53.764Z,380.00
2023-02-26T11:47:53.743Z,395.00
2023-02-26T11:48:53.741Z,252.00
2023-02-26T11:49:53.728Z,252.00
2023-02-26T11:50:53.751Z,407.00
2023-02-26T11:51:53.717Z,304.00
2023-02-26T11:52:53.723Z,333.00
2023-02-26T11:53:53.705Z,436.00
2023-02-26T11:54:53.662Z,367.00
2023-02-26T11:55:53.671Z,335.00
2023-02-26T11:56:53.648Z,360.00
2023-02-26T11:57:53.616Z,351.00
2023-02-26T11:58:55.259Z,300.00
2023-02-26T11:59:53.600Z,353.00
2023-02-26T12:00:53.610Z,257.00
2023-02-26T12:01:53.571Z,250.00
2023-02-26T12:02:53.614Z,330.00
2023-02-26T12:03:53.642Z,376.00
2023-02-26T12:04:53.541Z,382.00
2023-02-26T12:05:53.503Z,366.00
2023-02-26T12:06:53.521Z,298.00
2023-02-26T12:07:53.462Z,262.00
2023-02-26T12:08:53.502Z,411.00
2023-02-26T12:09:53.457Z,392.00
2023-02-26T12:10:53.424Z,250.00
2023-02-26T12:11:53.446Z,358.00
2023-02-26T12:12:53.427Z,339.00
2023-02-26T12:13:53.395Z,303.00
2023-02-26T12:14:53.397Z,313.00
2023-02-26T12:15:53.440Z,355.00
2023-02-26T12:16:53.375Z,355.00
2023-02-26T12:17:53.326Z,426.00
2023-02-26T12:18:53.323Z,300.00
2023-02-26T12:19:53.320Z,351.00
2023-02-26T12:20:53.294Z,262.00
2023-02-26T12:21:53.282Z,327.00
2023-02-26T12:22:53.271Z,321.00
2023-02-26T12:23:53.266Z,239.00
2023-02-26T12:24:53.262Z,249.00
2023-02-26T12:25:53.250Z,267.00
2023-02-26T12:26:53.225Z,314.00
2023-02-26T12:27:53.220Z,327.00